Time;durP1;ratioP1;P1;durP2;ratioP2;P2;SDS_P1;SDS_P2;PMS_P1;PMS_P2;Temp;Humidity;BMP_temperature;BMP_pressure;BME280_temperature;BME280_humidity;BME280_pressure;Samples;Min_cycle;Max_cycle;Signal;HPM_P1;HPM_P2
2023/12/19 00:01:17;;;;;;;9.20;6.72;;;;;;;1.61;100.00;99836.81;4136829;28;20217;-53
2023/12/19 00:03:20;;;;;;;14.30;6.18;;;;;;;1.76;100.00;99846.00;4132281;28;20244;-52
2023/12/19 00:05:22;;;;;;;6.30;5.80;;;;;;;1.71;100.00;99848.34;4134090;28;20240;-51
2023/12/19 00:07:23;;;;;;;5.75;5.25;;;;;;;1.72;100.00;99850.03;4135684;28;20562;-53
2023/12/19 00:09:25;;;;;;;10.25;6.75;;;;;;;1.80;100.00;99854.63;4136166;28;20220;-52
2023/12/19 00:11:27;;;;;;;6.40;5.88;;;;;;;1.87;100.00;99851.09;4136001;28;20293;-53
2023/12/19 00:13:29;;;;;;;9.70;8.27;;;;;;;1.80;100.00;99851.91;4132794;28;20292;-52
2023/12/19 00:15:31;;;;;;;7.07;6.47;;;;;;;1.78;100.00;99851.22;4134987;28;20698;-52
2023/12/19 00:17:33;;;;;;;6.63;6.00;;;;;;;1.78;100.00;99833.19;4133932;28;20352;-51
2023/12/19 00:19:35;;;;;;;6.78;6.07;;;;;;;1.83;100.00;99819.19;4134945;28;20233;-52
2023/12/19 00:21:37;;;;;;;9.85;8.02;;;;;;;1.82;100.00;99806.72;4120837;28;20250;-51
2023/12/19 00:23:39;;;;;;;7.20;6.20;;;;;;;1.76;100.00;99801.97;4132755;28;20241;-53
2023/12/19 00:25:41;;;;;;;5.53;5.03;;;;;;;1.70;100.00;99813.41;4120575;28;20206;-53
2023/12/19 00:27:43;;;;;;;7.78;7.10;;;;;;;1.67;100.00;99822.69;4135796;28;20312;-52
2023/12/19 00:29:44;;;;;;;5.75;5.18;;;;;;;1.67;100.00;99838.84;4140082;28;20954;-51
2023/12/19 00:31:46;;;;;;;5.75;5.20;;;;;;;1.78;100.00;99821.53;4133787;28;20293;-53
2023/12/19 00:33:48;;;;;;;6.00;5.40;;;;;;;1.71;100.00;99818.66;4135524;28;20271;-52
2023/12/19 00:35:50;;;;;;;6.65;6.13;;;;;;;1.79;100.00;99824.09;4134577;28;20706;-52
2023/12/19 00:37:52;;;;;;;7.65;5.80;;;;;;;1.78;100.00;99830.50;4136915;28;20236;-52
2023/12/19 00:39:53;;;;;;;7.13;6.47;;;;;;;1.80;100.00;99820.38;4122356;28;20217;-52
2023/12/19 00:41:55;;;;;;;7.20;4.88;;;;;;;1.80;100.00;99814.97;4134237;28;20214;-52
2023/12/19 00:43:57;;;;;;;6.53;5.85;;;;;;;1.82;100.00;99829.13;4116572;28;20209;-51
2023/12/19 00:45:59;;;;;;;7.47;6.90;;;;;;;1.86;100.00;99819.72;4132350;28;20210;-52
2023/12/19 00:48:01;;;;;;;6.88;6.32;;;;;;;1.82;100.00;99818.34;4137262;28;20255;-52
2023/12/19 00:50:03;;;;;;;10.00;9.25;;;;;;;1.79;100.00;99824.09;4138778;28;20252;-52
2023/12/19 00:52:05;;;;;;;8.88;7.72;;;;;;;1.77;100.00;99826.09;4144106;28;20206;-52
2023/12/19 00:54:06;;;;;;;8.63;7.75;;;;;;;1.61;100.00;99819.78;4136782;28;20690;-51
2023/12/19 00:56:09;;;;;;;8.48;6.40;;;;;;;1.66;100.00;99831.78;4123224;28;20230;-51
2023/12/19 00:58:11;;;;;;;20.33;6.63;;;;;;;1.64;100.00;99836.50;4142458;28;20233;-52
2023/12/19 01:00:13;;;;;;;5.15;4.68;;;;;;;1.61;100.00;99830.59;4124593;28;20213;-52
2023/12/19 01:02:15;;;;;;;5.50;5.00;;;;;;;1.59;100.00;99833.44;4144902;28;20217;-50
2023/12/19 01:04:17;;;;;;;6.90;5.15;;;;;;;1.61;100.00;99835.97;4124459;28;20682;-53
2023/12/19 01:06:20;;;;;;;4.55;4.15;;;;;;;1.55;100.00;99828.53;4135998;28;20662;-53
2023/12/19 01:08:22;;;;;;;14.20;5.85;;;;;;;1.57;100.00;99829.19;4124935;28;20232;-50
2023/12/19 01:10:23;;;;;;;8.85;8.02;;;;;;;1.53;100.00;99823.28;4108053;28;21241;-51
2023/12/19 01:12:25;;;;;;;6.72;6.15;;;;;;;1.53;100.00;99817.91;4137317;28;20220;-52
2023/12/19 01:14:27;;;;;;;7.10;6.47;;;;;;;1.53;100.00;99820.59;4139042;28;20205;-52
2023/12/19 01:16:29;;;;;;;5.75;5.22;;;;;;;1.50;100.00;99810.13;4135226;28;20284;-52
2023/12/19 01:18:31;;;;;;;7.68;6.85;;;;;;;1.40;100.00;99805.88;4137241;28;20637;-52
2023/12/19 01:20:33;;;;;;;6.90;5.30;;;;;;;1.40;100.00;99809.41;4137859;28;20245;-52
2023/12/19 01:22:35;;;;;;;10.32;5.50;;;;;;;1.43;100.00;99806.41;4137012;28;20291;-52
2023/12/19 01:24:37;;;;;;;8.95;7.82;;;;;;;1.42;100.00;99804.69;4135579;28;20657;-52
2023/12/19 01:26:39;;;;;;;8.98;6.07;;;;;;;1.43;100.00;99795.63;4138078;28;20206;-51
2023/12/19 01:28:40;;;;;;;8.10;7.40;;;;;;;1.39;100.00;99810.41;4142970;28;20841;-51
2023/12/19 01:30:42;;;;;;;5.93;5.13;;;;;;;1.35;100.00;99798.25;4134826;28;20292;-51
2023/12/19 01:32:44;;;;;;;13.68;7.95;;;;;;;1.32;100.00;99812.06;4135229;28;20256;-52
2023/12/19 01:34:46;;;;;;;4.78;4.30;;;;;;;1.34;100.00;99828.09;4136444;28;20928;-51
2023/12/19 01:36:49;;;;;;;7.30;6.63;;;;;;;1.39;100.00;99831.97;4138196;28;20229;-52
2023/12/19 01:38:58;;;;;;;6.88;6.38;;;;;;;1.44;100.00;99850.38;4137424;28;20228;-51
2023/12/19 01:41:00;;;;;;;6.55;6.05;;;;;;;1.52;100.00;99859.34;4133603;28;20210;-51
2023/12/19 01:43:02;;;;;;;6.15;5.25;;;;;;;1.49;100.00;99866.91;4120501;28;20211;-50
2023/12/19 01:45:12;;;;;;;6.40;5.88;;;;;;;1.44;100.00;99867.41;4138831;28;20221;-51
2023/12/19 01:47:14;;;;;;;4.25;3.95;;;;;;;1.34;100.00;99855.88;4135499;28;20205;-51
2023/12/19 01:49:15;;;;;;;7.30;6.32;;;;;;;1.27;100.00;99848.59;4136250;28;20753;-52
2023/12/19 01:51:17;;;;;;;5.93;5.25;;;;;;;1.32;100.00;99840.84;4138874;28;20296;-50
2023/12/19 01:53:20;;;;;;;6.90;6.40;;;;;;;1.30;100.00;99838.34;4143631;28;20212;-51
2023/12/19 01:55:24;;;;;;;7.82;4.97;;;;;;;1.26;100.00;99833.41;4135194;28;20240;-50
2023/12/19 01:57:25;;;;;;;4.57;4.18;;;;;;;1.26;100.00;99817.22;4141214;28;20691;-51
2023/12/19 01:59:27;;;;;;;6.17;5.37;;;;;;;1.21;100.00;99809.63;4115606;28;20333;-51
2023/12/19 02:01:33;;;;;;;8.48;7.68;;;;;;;1.23;100.00;99813.03;4135843;28;20213;-50
2023/12/19 02:03:35;;;;;;;8.07;7.40;;;;;;;1.30;100.00;99818.59;4134018;28;20673;-51
2023/12/19 02:05:40;;;;;;;10.47;6.33;;;;;;;1.25;100.00;99802.91;4140644;28;20233;-52
2023/12/19 02:07:45;;;;;;;9.32;6.57;;;;;;;1.26;100.00;99804.59;4144007;28;20316;-52
2023/12/19 02:09:47;;;;;;;5.65;5.18;;;;;;;1.19;100.00;99792.78;4136145;28;20264;-53
2023/12/19 02:11:48;;;;;;;6.00;5.55;;;;;;;1.17;100.00;99799.31;4138779;28;20209;-51
2023/12/19 02:13:50;;;;;;;7.32;6.72;;;;;;;1.24;100.00;99806.63;4143108;28;20213;-53
2023/12/19 02:15:52;;;;;;;8.27;7.57;;;;;;;1.16;100.00;99797.66;4142746;28;20228;-52
2023/12/19 02:17:54;;;;;;;8.18;6.65;;;;;;;1.20;100.00;99807.94;4135772;28;20299;-54
2023/12/19 02:19:56;;;;;;;7.10;6.50;;;;;;;1.22;100.00;99815.88;4134764;28;20272;-52
2023/12/19 02:21:57;;;;;;;6.25;5.78;;;;;;;1.14;100.00;99816.66;4142517;28;20216;-52
2023/12/19 02:23:59;;;;;;;5.68;5.18;;;;;;;1.14;100.00;99822.06;4138089;28;20721;-53
2023/12/19 02:26:01;;;;;;;7.47;6.72;;;;;;;1.18;100.00;99828.81;4120819;28;20226;-52
2023/12/19 02:28:03;;;;;;;6.03;5.53;;;;;;;1.18;100.00;99812.66;4140247;28;20232;-52
2023/12/19 02:30:06;;;;;;;7.22;6.03;;;;;;;1.15;100.00;99810.25;4134339;28;20205;-53
2023/12/19 02:32:08;;;;;;;7.95;5.78;;;;;;;1.23;100.00;99804.94;4137198;28;20213;-52
2023/12/19 02:34:10;;;;;;;5.82;5.38;;;;;;;1.17;100.00;99802.03;4136269;28;20225;-52
2023/12/19 02:36:11;;;;;;;5.80;5.30;;;;;;;1.12;100.00;99796.25;4136333;28;20233;-53
2023/12/19 02:38:13;;;;;;;5.65;5.15;;;;;;;1.23;100.00;99804.94;4134395;28;20226;-53
2023/12/19 02:40:15;;;;;;;5.90;4.53;;;;;;;1.23;100.00;99804.94;4136341;28;20227;-53
2023/12/19 02:42:17;;;;;;;6.13;3.75;;;;;;;1.20;100.00;99810.63;4136391;28;20210;-53
2023/12/19 02:44:18;;;;;;;6.35;5.75;;;;;;;1.20;100.00;99826.81;4136097;28;20257;-52
2023/12/19 02:46:20;;;;;;;6.07;5.47;;;;;;;1.25;100.00;99835.28;4120311;28;20852;-52
2023/12/19 02:48:22;;;;;;;7.35;6.82;;;;;;;1.27;100.00;99841.34;4137079;28;20229;-52
2023/12/19 02:50:24;;;;;;;3.55;3.28;;;;;;;1.10;100.00;99831.47;4120426;28;20217;-53
2023/12/19 02:52:26;;;;;;;4.97;4.53;;;;;;;1.17;100.00;99816.34;4137613;28;20213;-53
2023/12/19 02:54:28;;;;;;;7.05;6.43;;;;;;;1.11;100.00;99811.59;4140297;28;22211;-53
2023/12/19 02:56:32;;;;;;;4.82;4.35;;;;;;;1.07;100.00;99802.13;4148830;28;21154;-52
2023/12/19 02:58:33;;;;;;;6.65;4.30;;;;;;;1.04;100.00;99793.53;4120419;28;20231;-51
2023/12/19 03:00:35;;;;;;;7.15;6.25;;;;;;;1.01;100.00;99786.59;4134007;28;20288;-52
2023/12/19 03:02:37;;;;;;;6.07;5.25;;;;;;;0.95;100.00;99779.13;4138717;28;20220;-53
2023/12/19 03:04:39;;;;;;;5.37;4.97;;;;;;;0.99;100.00;99774.28;4133286;28;20701;-51
2023/12/19 03:06:40;;;;;;;4.45;4.15;;;;;;;1.05;100.00;99763.72;4127421;28;20273;-51
2023/12/19 03:08:46;;;;;;;4.97;4.68;;;;;;;1.01;100.00;99766.91;4134039;28;20751;-53
2023/12/19 03:10:48;;;;;;;4.75;4.50;;;;;;;0.97;100.00;99763.69;4142609;28;20201;-52
2023/12/19 03:12:50;;;;;;;4.25;3.85;;;;;;;0.96;100.00;99771.91;4135413;28;20202;-52
2023/12/19 03:14:52;;;;;;;4.95;4.57;;;;;;;0.91;100.00;99766.16;4133061;28;20242;-53
2023/12/19 03:16:53;;;;;;;3.35;3.17;;;;;;;0.82;100.00;99746.38;4135280;28;20229;-53
2023/12/19 03:18:55;;;;;;;3.03;2.83;;;;;;;0.81;100.00;99755.47;4138448;28;20770;-51
2023/12/19 03:20:57;;;;;;;5.30;4.38;;;;;;;0.85;100.00;99756.88;4134206;28;20288;-52
2023/12/19 03:22:59;;;;;;;5.03;4.73;;;;;;;0.87;100.00;99759.41;4137123;28;20256;-52
2023/12/19 03:25:02;;;;;;;3.80;3.50;;;;;;;0.87;100.00;99752.16;4120687;28;20211;-53
2023/12/19 03:27:06;;;;;;;11.00;3.58;;;;;;;0.89;100.00;99760.91;4133772;28;20261;-52
2023/12/19 03:29:08;;;;;;;6.63;4.20;;;;;;;0.92;100.00;99763.31;4137313;28;20226;-52
2023/12/19 03:31:09;;;;;;;4.57;4.18;;;;;;;0.85;100.00;99756.88;4134597;28;20206;-52
2023/12/19 03:33:11;;;;;;;3.23;3.00;;;;;;;0.90;100.00;99759.94;4117722;28;20218;-53
2023/12/19 03:35:13;;;;;;;3.70;3.50;;;;;;;0.76;100.00;99765.91;4135101;28;20214;-52
2023/12/19 03:37:15;;;;;;;4.40;4.10;;;;;;;0.87;100.00;99765.63;4134595;28;20229;-50
2023/12/19 03:39:17;;;;;;;3.47;3.28;;;;;;;0.79;100.00;99751.25;4135033;28;20212;-51
2023/12/19 03:41:19;;;;;;;3.57;3.30;;;;;;;0.77;100.00;99759.50;4120647;28;20214;-51
2023/12/19 03:43:20;;;;;;;3.33;3.13;;;;;;;0.81;100.00;99750.09;4136977;28;20854;-50
2023/12/19 03:45:22;;;;;;;3.35;3.05;;;;;;;0.76;100.00;99755.13;4134826;28;20651;-51
2023/12/19 03:47:24;;;;;;;4.73;4.40;;;;;;;0.76;100.00;99756.97;4135426;28;20236;-50
2023/12/19 03:49:27;;;;;;;3.05;2.80;;;;;;;0.74;100.00;99765.19;4148198;28;20219;-51
2023/12/19 03:51:29;;;;;;;3.03;2.83;;;;;;;0.86;100.00;99763.94;4135934;28;20209;-53
2023/12/19 03:53:31;;;;;;;4.53;3.47;;;;;;;0.86;100.00;99766.63;4133475;28;20206;-50
2023/12/19 03:55:32;;;;;;;2.83;2.63;;;;;;;0.88;100.00;99761.91;4124953;28;20627;-51
2023/12/19 03:57:35;;;;;;;3.70;3.40;;;;;;;0.89;100.00;99755.53;4141681;28;20237;-50
2023/12/19 03:59:37;;;;;;;4.88;4.20;;;;;;;0.83;100.00;99752.63;4134194;28;20254;-50
2023/12/19 04:01:44;;;;;;;5.55;4.93;;;;;;;0.62;100.00;99734.13;4134897;28;20220;-50
2023/12/19 04:03:46;;;;;;;3.20;2.97;;;;;;;0.67;100.00;99721.06;4119172;28;20210;-52
2023/12/19 04:05:47;;;;;;;3.45;3.05;;;;;;;0.55;100.00;99733.06;4134398;28;20625;-51
2023/12/19 04:07:49;;;;;;;4.63;4.27;;;;;;;0.61;100.00;99732.44;4132173;28;20233;-50
2023/12/19 04:09:51;;;;;;;3.43;3.13;;;;;;;0.51;100.00;99742.50;4134520;28;20217;-52
2023/12/19 04:11:53;;;;;;;3.83;3.63;;;;;;;0.54;100.00;99731.38;4134880;28;20217;-52
2023/12/19 04:13:55;;;;;;;4.87;4.50;;;;;;;0.54;100.00;99726.00;4137238;28;20213;-52
2023/12/19 04:15:57;;;;;;;8.07;4.17;;;;;;;0.57;100.00;99727.53;4134935;28;20656;-51
2023/12/19 04:17:59;;;;;;;3.90;3.63;;;;;;;0.67;100.00;99731.81;4135022;28;20269;-54
2023/12/19 04:20:01;;;;;;;5.63;5.13;;;;;;;0.65;100.00;99732.97;4139908;28;20221;-52
2023/12/19 04:22:03;;;;;;;5.67;4.87;;;;;;;0.76;100.00;99736.28;4124458;28;20321;-52
2023/12/19 04:24:05;;;;;;;5.10;4.70;;;;;;;0.81;100.00;99741.19;4135201;28;20209;-50
2023/12/19 04:26:07;;;;;;;3.60;3.40;;;;;;;0.85;100.00;99735.31;4141141;28;20214;-50
2023/12/19 04:28:09;;;;;;;6.45;4.63;;;;;;;0.88;100.00;99734.97;4134548;28;20296;-53
2023/12/19 04:30:11;;;;;;;5.07;4.63;;;;;;;0.86;100.00;99734.31;4133597;28;21062;-50
2023/12/19 04:32:13;;;;;;;2.83;2.65;;;;;;;0.73;100.00;99741.97;4150220;28;20783;-50
2023/12/19 04:34:15;;;;;;;4.65;4.22;;;;;;;0.73;100.00;99736.56;4147911;28;20770;-54
2023/12/19 04:36:17;;;;;;;3.88;3.50;;;;;;;0.75;100.00;99733.72;4132865;28;20220;-51
2023/12/19 04:38:19;;;;;;;5.30;4.63;;;;;;;0.79;100.00;99735.94;4135605;28;20304;-51
2023/12/19 04:40:21;;;;;;;4.57;4.13;;;;;;;0.80;100.00;99737.63;4135826;28;20214;-53
2023/12/19 04:42:23;;;;;;;5.80;5.20;;;;;;;0.72;100.00;99734.91;4133129;28;20225;-53
2023/12/19 04:44:25;;;;;;;3.20;2.90;;;;;;;0.64;100.00;99732.16;4137368;28;20686;-52
2023/12/19 04:46:27;;;;;;;5.13;4.63;;;;;;;0.76;100.00;99720.13;4137628;28;20840;-52
2023/12/19 04:48:31;;;;;;;3.28;3.00;;;;;;;0.69;100.00;99727.09;4140127;28;20292;-52
2023/12/19 04:50:34;;;;;;;6.65;4.22;;;;;;;0.61;100.00;99713.59;4134233;28;20639;-53
2023/12/19 04:52:35;;;;;;;5.30;4.23;;;;;;;0.53;100.00;99704.63;4134780;28;20214;-53
2023/12/19 04:54:37;;;;;;;4.67;4.37;;;;;;;0.54;100.00;99704.47;4137185;28;20678;-52
2023/12/19 04:56:39;;;;;;;4.43;4.03;;;;;;;0.58;100.00;99710.38;4136611;28;20235;-53
2023/12/19 04:58:41;;;;;;;3.53;3.33;;;;;;;0.60;100.00;99711.91;4137393;28;20592;-53
2023/12/19 05:00:42;;;;;;;4.77;4.47;;;;;;;0.64;100.00;99710.59;4138896;28;20288;-52
2023/12/19 05:02:44;;;;;;;3.73;3.53;;;;;;;0.69;100.00;99697.47;4144167;28;20299;-52
2023/12/19 05:04:47;;;;;;;7.30;6.60;;;;;;;0.67;100.00;99707.59;4140543;28;20716;-54
2023/12/19 05:06:48;;;;;;;4.30;3.90;;;;;;;0.69;100.00;99708.25;4136673;28;20205;-51
2023/12/19 05:08:50;;;;;;;5.73;5.27;;;;;;;0.75;100.00;99713.00;4134187;28;20268;-52
2023/12/19 05:10:52;;;;;;;3.87;3.63;;;;;;;0.75;100.00;99718.41;4136081;28;20304;-53
2023/12/19 05:12:53;;;;;;;3.92;3.47;;;;;;;0.85;100.00;99707.50;4137353;28;20205;-52
2023/12/19 05:14:55;;;;;;;4.75;4.30;;;;;;;0.78;100.00;99706.47;4123286;28;20302;-52
2023/12/19 05:16:59;;;;;;;4.30;3.73;;;;;;;0.66;100.00;99719.38;4136707;28;20791;-51
2023/12/19 05:19:01;;;;;;;4.07;3.87;;;;;;;0.65;100.00;99723.06;4140448;28;20658;-56
2023/12/19 05:21:03;;;;;;;4.13;3.83;;;;;;;0.76;100.00;99720.13;4133241;28;20619;-53
2023/12/19 05:23:05;;;;;;;8.47;3.60;;;;;;;0.81;100.00;99707.00;4137723;28;20217;-51
2023/12/19 05:25:07;;;;;;;4.67;4.27;;;;;;;0.90;100.00;99705.19;4135554;28;20210;-52
2023/12/19 05:27:09;;;;;;;4.60;4.20;;;;;;;0.98;100.00;99714.19;4125799;28;20294;-52
2023/12/19 05:29:10;;;;;;;7.30;4.57;;;;;;;0.95;100.00;99709.09;4133878;28;20214;-52
2023/12/19 05:31:12;;;;;;;5.43;4.85;;;;;;;0.97;100.00;99711.63;4135936;28;20222;-53
2023/12/19 05:33:14;;;;;;;4.95;4.15;;;;;;;0.85;100.00;99729.94;4143026;28;20205;-52
2023/12/19 05:35:16;;;;;;;3.42;3.00;;;;;;;0.91;100.00;99745.47;4136628;28;21101;-51
2023/12/19 05:37:18;;;;;;;6.22;3.85;;;;;;;0.95;100.00;99733.34;4135316;28;20244;-52
2023/12/19 05:39:20;;;;;;;3.20;3.00;;;;;;;0.84;100.00;99738.16;4137186;28;20210;-53
2023/12/19 05:41:22;;;;;;;6.40;5.80;;;;;;;0.80;100.00;99737.63;4137760;28;20269;-52
2023/12/19 05:43:24;;;;;;;4.80;4.30;;;;;;;0.85;100.00;99734.44;4136582;28;20594;-51
2023/12/19 05:45:25;;;;;;;4.47;4.17;;;;;;;0.77;100.00;99742.50;4122640;28;20217;-51
2023/12/19 05:47:27;;;;;;;5.20;4.72;;;;;;;0.68;100.00;99744.28;4136089;28;20236;-53
2023/12/19 05:49:29;;;;;;;5.32;4.88;;;;;;;0.75;100.00;99744.50;4136893;28;20216;-53
2023/12/19 05:51:30;;;;;;;5.83;5.33;;;;;;;0.76;100.00;99743.50;4136291;28;20218;-55
2023/12/19 05:53:32;;;;;;;3.80;3.50;;;;;;;0.73;100.00;99744.66;4135503;28;20268;-52
2023/12/19 05:55:34;;;;;;;5.43;4.93;;;;;;;0.70;100.00;99736.06;4137559;28;20205;-52
2023/12/19 05:57:39;;;;;;;4.30;3.50;;;;;;;0.62;100.00;99736.81;4135366;28;20284;-51
2023/12/19 05:59:41;;;;;;;4.60;4.20;;;;;;;0.67;100.00;99731.00;4134492;28;20210;-54
2023/12/19 06:01:43;;;;;;;3.50;3.17;;;;;;;0.67;100.00;99739.91;4135985;28;20233;-54
2023/12/19 06:03:45;;;;;;;6.27;5.77;;;;;;;0.75;100.00;99725.66;4138839;28;20201;-51
2023/12/19 06:05:47;;;;;;;6.40;5.30;;;;;;;0.76;100.00;99724.66;4120262;28;20213;-53
2023/12/19 06:07:49;;;;;;;5.00;4.73;;;;;;;0.70;100.00;99736.91;4137413;28;20340;-51
2023/12/19 06:09:52;;;;;;;3.93;3.60;;;;;;;0.76;100.00;99733.59;4135501;28;20260;-52
2023/12/19 06:11:53;;;;;;;3.53;3.13;;;;;;;0.71;100.00;99733.22;4134553;28;20202;-51
2023/12/19 06:13:55;;;;;;;3.40;3.20;;;;;;;0.76;100.00;99736.28;4135891;28;20268;-51
2023/12/19 06:15:57;;;;;;;4.50;4.20;;;;;;;0.77;100.00;99721.81;4138103;28;20642;-50
2023/12/19 06:17:58;;;;;;;5.45;4.63;;;;;;;0.83;100.00;99707.69;4125723;28;20242;-52
2023/12/19 06:20:01;;;;;;;5.07;4.17;;;;;;;0.77;100.00;99716.41;4139351;28;20308;-52
2023/12/19 06:22:03;;;;;;;8.37;6.60;;;;;;;0.84;100.00;99698.59;4136754;28;20845;-52
2023/12/19 06:24:05;;;;;;;7.65;3.63;;;;;;;0.90;100.00;99697.97;4137330;28;20237;-52
2023/12/19 06:26:08;;;;;;;3.90;3.58;;;;;;;0.81;100.00;99700.78;4135769;28;20775;-52
2023/12/19 06:28:09;;;;;;;5.00;4.05;;;;;;;0.75;100.00;99691.47;4142660;28;20292;-52
2023/12/19 06:30:12;;;;;;;4.27;3.97;;;;;;;0.77;100.00;99691.31;4143668;28;20562;-54
2023/12/19 06:32:28;;;;;;;4.20;3.70;;;;;;;0.74;100.00;99689.78;4123134;28;20264;-52
2023/12/19 06:34:30;;;;;;;4.57;4.27;;;;;;;0.85;100.00;99686.81;4138565;28;20674;-52
2023/12/19 06:36:32;;;;;;;3.90;3.60;;;;;;;0.90;100.00;99700.66;4142624;28;20220;-52
2023/12/19 06:38:35;;;;;;;3.60;3.40;;;;;;;0.93;100.00;99697.63;4141754;28;20318;-52
2023/12/19 06:40:37;;;;;;;4.00;3.67;;;;;;;0.96;100.00;99693.78;4141929;28;20209;-54
2023/12/19 06:42:39;;;;;;;6.10;5.23;;;;;;;0.89;100.00;99693.56;4135566;28;20209;-51
2023/12/19 06:44:41;;;;;;;2.80;2.60;;;;;;;0.86;100.00;99690.34;4138870;28;20211;-52
2023/12/19 06:46:42;;;;;;;6.43;4.43;;;;;;;0.98;100.00;99697.16;4135592;28;20213;-52
2023/12/19 06:48:45;;;;;;;3.38;3.08;;;;;;;0.86;100.00;99693.91;4135744;28;20229;-53
2023/12/19 06:50:55;;;;;;;4.37;4.03;;;;;;;0.90;100.00;99686.34;4137208;28;20240;-54
2023/12/19 06:52:58;;;;;;;3.60;3.30;;;;;;;0.98;100.00;99703.41;4136955;28;20240;-53
2023/12/19 06:55:00;;;;;;;5.85;4.32;;;;;;;0.97;100.00;99701.72;4132684;28;20217;-54
2023/12/19 06:57:02;;;;;;;4.28;3.88;;;;;;;0.86;100.00;99693.91;4136972;28;20237;-52
2023/12/19 06:59:05;;;;;;;8.30;3.15;;;;;;;0.86;100.00;99688.50;4135233;28;20221;-53
2023/12/19 07:01:07;;;;;;;5.57;5.28;;;;;;;1.03;100.00;99694.81;4136135;28;20206;-51
2023/12/19 07:03:09;;;;;;;4.32;3.63;;;;;;;0.97;100.00;99692.78;4132790;28;20642;-53
2023/12/19 07:05:11;;;;;;;5.87;5.27;;;;;;;0.98;100.00;99689.06;4135080;28;20591;-52
2023/12/19 07:07:13;;;;;;;4.88;4.47;;;;;;;0.94;100.00;99679.63;4137208;28;20213;-50
2023/12/19 07:09:15;;;;;;;7.23;4.20;;;;;;;0.85;100.00;99665.28;4131638;28;20210;-51
2023/12/19 07:11:17;;;;;;;7.18;5.53;;;;;;;0.78;100.00;99664.22;4134803;28;20224;-52
2023/12/19 07:13:19;;;;;;;4.13;3.93;;;;;;;0.81;100.00;99657.69;4136583;28;20201;-52
2023/12/19 07:15:21;;;;;;;5.33;3.40;;;;;;;0.82;100.00;99662.06;4135860;28;20679;-51
2023/12/19 07:17:23;;;;;;;5.70;4.33;;;;;;;0.77;100.00;99657.16;4120510;28;20592;-51
2023/12/19 07:19:25;;;;;;;5.93;5.23;;;;;;;0.81;100.00;99655.81;4135808;28;20789;-51
2023/12/19 07:21:29;;;;;;;5.17;4.77;;;;;;;0.81;100.00;99652.28;4141188;28;20237;-52
2023/12/19 07:23:31;;;;;;;3.92;3.63;;;;;;;0.81;100.00;99647.72;4134696;28;20293;-54
2023/12/19 07:25:32;;;;;;;3.73;3.20;;;;;;;0.84;100.00;99642.03;4132813;28;20217;-51
2023/12/19 07:27:34;;;;;;;4.50;4.00;;;;;;;0.78;100.00;99644.50;4120691;28;20230;-50
2023/12/19 07:29:39;;;;;;;4.00;3.70;;;;;;;0.84;100.00;99649.25;4121376;28;20530;-52
2023/12/19 07:31:41;;;;;;;5.10;4.57;;;;;;;0.82;100.00;99654.81;4124664;28;20205;-51
2023/12/19 07:33:43;;;;;;;3.87;3.60;;;;;;;0.93;100.00;99657.22;4136313;28;20257;-52
2023/12/19 07:35:45;;;;;;;4.47;4.07;;;;;;;0.97;100.00;99663.13;4120307;28;20713;-51
2023/12/19 07:37:46;;;;;;;8.73;5.45;;;;;;;0.90;100.00;99645.94;4141568;28;20229;-52
2023/12/19 07:39:48;;;;;;;5.50;4.95;;;;;;;0.92;100.00;99638.50;4143682;28;20197;-53
2023/12/19 07:41:50;;;;;;;7.70;4.03;;;;;;;0.90;100.00;99641.41;4137252;28;20269;-53
2023/12/19 07:43:51;;;;;;;3.65;3.35;;;;;;;0.97;100.00;99642.44;4136301;28;20839;-54
2023/12/19 07:45:53;;;;;;;3.33;3.13;;;;;;;0.86;100.00;99656.19;4120694;28;20207;-53
2023/12/19 07:47:55;;;;;;;5.70;5.30;;;;;;;0.87;100.00;99652.47;4134771;28;20725;-52
2023/12/19 07:49:57;;;;;;;4.63;4.22;;;;;;;0.77;100.00;99650.91;4135725;28;20285;-53
2023/12/19 07:51:59;;;;;;;5.87;5.37;;;;;;;0.81;100.00;99655.81;4138407;28;20220;-52
2023/12/19 07:54:01;;;;;;;5.13;4.63;;;;;;;0.93;100.00;99641.06;4139345;28;20261;-54
2023/12/19 07:56:03;;;;;;;4.07;3.77;;;;;;;0.99;100.00;99639.56;4141029;28;20201;-50
2023/12/19 07:58:06;;;;;;;6.70;4.28;;;;;;;1.04;100.00;99631.84;4135659;28;20325;-51
2023/12/19 08:00:11;;;;;;;4.43;4.03;;;;;;;1.04;100.00;99642.63;4133479;28;20213;-52
2023/12/19 08:02:12;;;;;;;3.95;3.65;;;;;;;0.98;100.00;99641.44;4142587;28;20260;-53
2023/12/19 08:04:14;;;;;;;3.85;2.60;;;;;;;0.89;100.00;99639.69;4139876;28;20218;-52
2023/12/19 08:06:16;;;;;;;4.63;4.28;;;;;;;0.94;100.00;99641.91;4136532;28;20305;-52
2023/12/19 08:08:18;;;;;;;4.43;4.03;;;;;;;1.02;100.00;99645.47;4137994;28;20269;-52
2023/12/19 08:10:20;;;;;;;5.10;4.70;;;;;;;0.96;100.00;99646.16;4141608;28;20217;-51
2023/12/19 08:12:22;;;;;;;4.03;2.78;;;;;;;0.99;100.00;99634.16;4141242;28;20752;-55
2023/12/19 08:14:23;;;;;;;4.33;4.03;;;;;;;1.02;100.00;99637.38;4138023;28;20563;-52
2023/12/19 08:16:25;;;;;;;4.75;4.22;;;;;;;1.11;100.00;99639.13;4132612;28;20221;-52
2023/12/19 08:18:27;;;;;;;5.75;5.25;;;;;;;1.07;100.00;99634.22;4148819;28;20437;-54
2023/12/19 08:20:29;;;;;;;5.90;5.43;;;;;;;1.16;100.00;99642.19;4132184;28;20562;-54
2023/12/19 08:22:30;;;;;;;3.65;3.35;;;;;;;1.14;100.00;99644.16;4138187;28;20216;-53
2023/12/19 08:24:32;;;;;;;9.57;4.47;;;;;;;1.28;100.00;99651.63;4138449;28;20279;-51
2023/12/19 08:26:34;;;;;;;4.80;4.40;;;;;;;1.19;100.00;99662.53;4133097;28;20210;-52
2023/12/19 08:28:36;;;;;;;4.25;3.95;;;;;;;1.26;100.00;99666.28;4132517;28;20268;-53
2023/12/19 08:30:40;;;;;;;3.95;3.65;;;;;;;1.34;100.00;99659.06;4129877;28;20205;-54
2023/12/19 08:32:42;;;;;;;5.15;4.32;;;;;;;1.20;100.00;99654.31;4130767;28;20243;-51
2023/12/19 08:34:45;;;;;;;2.63;2.42;;;;;;;1.29;100.00;99645.22;4134442;28;20209;-52
2023/12/19 08:36:47;;;;;;;3.13;2.83;;;;;;;1.36;100.00;99648.13;4133056;28;20237;-51
2023/12/19 08:38:49;;;;;;;3.40;2.90;;;;;;;1.41;100.00;99635.81;4134858;28;20684;-54
2023/12/19 08:40:51;;;;;;;4.40;4.18;;;;;;;1.24;100.00;99620.63;4139419;28;20312;-52
2023/12/19 08:42:53;;;;;;;4.05;3.80;;;;;;;1.19;100.00;99625.66;4124380;28;20686;-53
2023/12/19 08:44:55;;;;;;;4.20;3.88;;;;;;;1.33;100.00;99622.34;4122541;28;20214;-55
2023/12/19 08:46:57;;;;;;;4.00;3.78;;;;;;;1.35;100.00;99620.31;4140063;28;20217;-53
2023/12/19 08:49:00;;;;;;;4.07;3.78;;;;;;;1.32;100.00;99617.94;4130154;28;20221;-54
2023/12/19 08:51:04;;;;;;;5.05;4.38;;;;;;;1.28;100.00;99613.06;4134032;28;20236;-54
2023/12/19 08:53:06;;;;;;;3.75;3.28;;;;;;;1.40;100.00;99604.47;4135702;28;20209;-51
2023/12/19 08:55:09;;;;;;;3.33;3.10;;;;;;;1.38;100.00;99602.97;4136683;28;20255;-54
2023/12/19 08:57:11;;;;;;;4.40;3.50;;;;;;;1.39;100.00;99605.50;4145995;28;20206;-54
2023/12/19 08:59:12;;;;;;;2.97;2.78;;;;;;;1.32;100.00;99599.09;4133202;28;21944;-53
2023/12/19 09:01:14;;;;;;;4.20;3.75;;;;;;;1.31;100.00;99600.09;4134798;28;20241;-51
2023/12/19 09:03:16;;;;;;;3.40;3.10;;;;;;;1.37;100.00;99601.28;4117491;28;20214;-51
2023/12/19 09:05:19;;;;;;;5.18;3.03;;;;;;;1.43;100.00;99595.22;4134323;28;20772;-53
2023/12/19 09:07:21;;;;;;;4.47;4.07;;;;;;;1.42;100.00;99598.94;4139494;28;20209;-52
2023/12/19 09:09:22;;;;;;;3.72;3.42;;;;;;;1.42;100.00;99594.38;4131910;28;20621;-56
2023/12/19 09:11:25;;;;;;;4.43;3.97;;;;;;;1.46;100.00;99594.88;4139158;28;20213;-55
2023/12/19 09:13:28;;;;;;;3.38;3.10;;;;;;;1.45;100.00;99591.34;4134647;28;20212;-51
2023/12/19 09:15:30;;;;;;;2.92;2.70;;;;;;;1.55;100.00;99599.28;4153392;28;20744;-56
2023/12/19 09:17:31;;;;;;;3.42;3.13;;;;;;;1.53;100.00;99607.53;4137663;28;20260;-53
2023/12/19 09:19:34;;;;;;;3.72;2.95;;;;;;;1.52;100.00;99608.56;4124687;28;20598;-53
2023/12/19 09:21:36;;;;;;;1.83;1.73;;;;;;;1.48;100.00;99609.88;4138958;28;20284;-51
2023/12/19 09:23:39;;;;;;;5.57;3.63;;;;;;;1.59;100.00;99609.56;4134758;28;20252;-54
2023/12/19 09:25:42;;;;;;;4.03;3.72;;;;;;;1.60;100.00;99608.56;4135399;28;20214;-52
2023/12/19 09:27:45;;;;;;;2.60;2.40;;;;;;;1.65;100.00;99617.00;4122426;28;20226;-53
2023/12/19 09:29:47;;;;;;;3.92;2.72;;;;;;;1.68;100.00;99616.66;4139397;28;20672;-52
2023/12/19 09:31:49;;;;;;;2.95;2.75;;;;;;;1.61;100.00;99618.34;4139616;28;20209;-52
2023/12/19 09:33:50;;;;;;;3.42;3.20;;;;;;;1.71;100.00;99621.72;4136357;28;20228;-53
2023/12/19 09:35:52;;;;;;;4.00;3.70;;;;;;;1.70;100.00;99619.19;4139928;28;20244;-52